Time;durP1;ratioP1;P1;durP2;ratioP2;P2;SDS_P1;SDS_P2;PMS_P1;PMS_P2;Temp;Humidity;BMP_temperature;BMP_pressure;BME280_temperature;BME280_humidity;BME280_pressure;Samples;Min_cycle;Max_cycle;Signal;HPM_P1;HPM_P2
2022/09/17 00:01:27;;;;;;;14.80;3.65;;;;;;;11.76;100.00;101186.94;5054467;28;20049;-58
2022/09/17 00:03:59;;;;;;;13.32;3.72;;;;;;;11.79;100.00;101193.75;5063967;28;20415;-54
2022/09/17 00:06:26;;;;;;;15.95;4.07;;;;;;;11.79;100.00;101196.50;5071747;28;20457;-54
2022/09/17 00:08:54;;;;;;;11.73;3.50;;;;;;;11.77;100.00;101187.75;5072995;28;20048;-57
2022/09/17 00:11:25;;;;;;;15.63;4.15;;;;;;;11.77;100.00;101204.13;5059104;28;20048;-58
2022/09/17 00:13:53;;;;;;;11.35;3.08;;;;;;;11.73;100.00;101201.09;5065891;28;20048;-58
2022/09/17 00:16:27;;;;;;;18.65;4.03;;;;;;;11.71;100.00;101203.25;5054774;28;20042;-59
2022/09/17 00:18:55;;;;;;;14.18;3.40;;;;;;;11.68;100.00;101207.34;5072666;28;20040;-56
2022/09/17 00:21:23;;;;;;;9.50;2.95;;;;;;;11.70;100.00;101220.72;5064519;28;20442;-55
2022/09/17 00:23:55;;;;;;;11.93;3.10;;;;;;;11.72;100.00;101203.00;5068683;28;20047;-56
2022/09/17 00:26:24;;;;;;;14.68;3.85;;;;;;;11.74;100.00;101213.66;5069419;28;20776;-57
2022/09/17 00:28:53;;;;;;;11.77;3.63;;;;;;;11.70;100.00;101218.00;5069816;28;20043;-54
2022/09/17 00:31:21;;;;;;;14.15;3.53;;;;;;;11.70;100.00;101209.81;5068406;28;20040;-58
2022/09/17 00:33:50;;;;;;;11.85;3.45;;;;;;;11.70;100.00;101212.53;5069850;28;20048;-56
2022/09/17 00:36:19;;;;;;;12.48;3.35;;;;;;;11.71;100.00;101222.38;5071644;28;20491;-56
2022/09/17 00:38:52;;;;;;;12.88;3.65;;;;;;;11.68;100.00;101228.38;5071407;28;20556;-55
2022/09/17 00:41:21;;;;;;;16.70;3.40;;;;;;;11.66;100.00;101227.81;5058790;28;20052;-56
2022/09/17 00:43:51;;;;;;;17.35;4.22;;;;;;;11.66;100.00;101227.81;5063176;28;20141;-55
2022/09/17 00:46:43;;;;;;;13.18;3.65;;;;;;;11.67;100.00;101224.00;5069553;28;20460;-55
2022/09/17 00:49:15;;;;;;;17.42;3.63;;;;;;;11.68;100.00;101214.72;5071437;28;20043;-59
2022/09/17 00:52:05;;;;;;;17.45;3.60;;;;;;;11.68;100.00;101222.91;5068664;28;20041;-59
2022/09/17 00:54:34;;;;;;;14.45;3.83;;;;;;;11.68;100.00;101223.72;5065981;28;20044;-56
2022/09/17 00:57:02;;;;;;;18.33;4.40;;;;;;;11.66;100.00;101227.81;5066764;28;20044;-55
2022/09/17 00:59:31;;;;;;;13.75;4.00;;;;;;;11.65;100.00;101232.44;5072062;28;20406;-56
2022/09/17 01:01:59;;;;;;;13.93;4.10;;;;;;;11.66;100.00;101228.63;5066897;28;20052;-55
2022/09/17 01:04:27;;;;;;;12.63;3.00;;;;;;;11.66;100.00;101233.25;5061148;28;20041;-59
2022/09/17 01:07:00;;;;;;;12.15;3.20;;;;;;;11.66;100.00;101227.81;5068658;28;20051;-57
2022/09/17 01:09:34;;;;;;;11.77;3.92;;;;;;;11.65;100.00;101234.38;5069753;28;20044;-56
2022/09/17 01:12:27;;;;;;;13.38;3.53;;;;;;;11.65;100.00;101237.91;5070191;28;20398;-55
2022/09/17 01:14:57;;;;;;;12.55;4.05;;;;;;;11.65;99.47;101234.38;5073311;28;20041;-57
2022/09/17 01:17:41;;;;;;;14.18;4.00;;;;;;;11.63;99.96;101244.72;5063535;28;20029;-54
2022/09/17 01:20:21;;;;;;;14.18;3.33;;;;;;;11.63;99.63;101237.34;5074876;28;20040;-56
2022/09/17 01:23:16;;;;;;;15.38;3.80;;;;;;;11.65;99.54;101245.28;5072822;28;20041;-55
2022/09/17 01:25:54;;;;;;;18.92;4.20;;;;;;;11.65;98.81;101245.28;5076081;28;20044;-56
2022/09/17 01:28:41;;;;;;;14.73;3.38;;;;;;;11.64;98.58;101247.19;5072021;28;20052;-54
2022/09/17 01:31:34;;;;;;;13.80;3.65;;;;;;;11.64;98.63;101251.81;5059542;28;20048;-58
2022/09/17 01:34:20;;;;;;;15.27;3.72;;;;;;;11.62;98.84;101248.56;5069792;28;20072;-57
2022/09/17 01:37:13;;;;;;;14.93;3.20;;;;;;;11.59;98.43;101251.78;5076125;28;20121;-56
2022/09/17 01:39:51;;;;;;;12.38;3.30;;;;;;;11.57;98.71;101267.59;5072932;28;20043;-58
2022/09/17 01:42:48;;;;;;;14.70;3.47;;;;;;;11.53;98.70;101256.41;5071970;28;20514;-58
2022/09/17 01:45:31;;;;;;;14.35;3.50;;;;;;;11.54;98.80;101257.22;5061627;28;20037;-57
2022/09/17 01:48:19;;;;;;;15.23;3.60;;;;;;;11.55;98.23;101264.34;5072187;28;20067;-57
2022/09/17 01:50:52;;;;;;;13.80;3.40;;;;;;;11.54;98.95;101262.69;5061389;28;20033;-55
2022/09/17 01:53:26;;;;;;;17.92;3.60;;;;;;;11.54;99.06;101265.41;5053071;28;20044;-58
2022/09/17 01:55:55;;;;;;;11.45;3.42;;;;;;;11.53;98.74;101256.41;5074218;28;20048;-57
2022/09/17 01:58:31;;;;;;;11.43;3.15;;;;;;;11.52;98.91;101261.03;5074917;28;20051;-54
2022/09/17 02:01:02;;;;;;;15.35;3.33;;;;;;;11.52;98.68;101255.59;5061150;28;20063;-56
2022/09/17 02:03:53;;;;;;;13.60;3.20;;;;;;;11.55;98.90;101253.41;5088516;28;20465;-56
2022/09/17 02:06:26;;;;;;;12.65;3.65;;;;;;;11.51;98.76;101264.84;5074684;28;20048;-56
2022/09/17 02:08:57;;;;;;;12.77;3.38;;;;;;;11.50;99.11;101260.47;5053786;28;20037;-55
2022/09/17 02:11:25;;;;;;;11.18;3.10;;;;;;;11.50;98.72;101268.66;5066450;28;20057;-54
2022/09/17 02:14:11;;;;;;;12.38;3.40;;;;;;;11.48;99.05;101273.56;5053326;28;20087;-56
2022/09/17 02:16:45;;;;;;;13.15;3.38;;;;;;;11.45;99.31;101276.81;5073803;28;20101;-57
2022/09/17 02:19:26;;;;;;;10.68;3.08;;;;;;;11.47;99.60;101274.66;5073298;28;20041;-54
2022/09/17 02:22:15;;;;;;;13.57;3.28;;;;;;;11.46;99.43;101273.00;5060766;28;20086;-53
2022/09/17 02:25:06;;;;;;;12.02;2.97;;;;;;;11.48;99.42;101265.38;5061205;28;20044;-52
2022/09/17 02:27:47;;;;;;;13.15;3.47;;;;;;;11.50;99.44;101265.13;5071631;28;20032;-56
2022/09/17 02:30:15;;;;;;;14.00;3.45;;;;;;;11.51;99.21;101261.28;5074773;28;20093;-54
2022/09/17 02:32:43;;;;;;;12.48;3.45;;;;;;;11.53;99.17;101264.59;5056665;28;20049;-53
2022/09/17 02:35:12;;;;;;;11.07;2.88;;;;;;;11.55;99.00;101267.88;5044408;28;20067;-54
2022/09/17 02:37:44;;;;;;;15.52;3.15;;;;;;;11.56;99.89;101274.16;5069727;28;20056;-55
2022/09/17 02:40:14;;;;;;;8.63;2.78;;;;;;;11.56;99.23;101283.16;5061873;28;20052;-54
2022/09/17 02:43:03;;;;;;;12.18;2.92;;;;;;;11.55;99.99;101277.97;5067708;28;20041;-55
2022/09/17 02:45:46;;;;;;;10.25;3.05;;;;;;;11.57;99.64;101289.44;5073224;28;20102;-56
2022/09/17 02:48:26;;;;;;;12.80;3.50;;;;;;;11.55;99.83;101280.72;5073219;28;20044;-55
2022/09/17 02:51:24;;;;;;;12.40;2.97;;;;;;;11.53;99.68;101280.97;5072041;28;20040;-59
2022/09/17 02:54:04;;;;;;;9.38;2.70;;;;;;;11.54;100.00;101276.31;5062702;28;20449;-54
2022/09/17 02:56:35;;;;;;;11.75;3.00;;;;;;;11.57;100.00;101278.50;5072291;28;20051;-54
2022/09/17 02:59:14;;;;;;;12.98;3.13;;;;;;;11.57;100.00;101275.78;5067307;28;20376;-56
2022/09/17 03:02:02;;;;;;;12.85;3.20;;;;;;;11.56;100.00;101283.16;5064421;28;20416;-53
2022/09/17 03:04:30;;;;;;;13.15;3.05;;;;;;;11.55;100.00;101277.97;5072364;28;20411;-57
2022/09/17 03:06:58;;;;;;;8.43;2.65;;;;;;;11.54;100.00;101279.03;5055810;28;20044;-55
2022/09/17 03:09:26;;;;;;;10.55;3.40;;;;;;;11.51;100.00;101278.47;5070709;28;20044;-54
2022/09/17 03:11:54;;;;;;;13.13;3.17;;;;;;;11.54;100.00;101279.03;5071203;28;20052;-59
2022/09/17 03:14:21;;;;;;;13.15;3.60;;;;;;;11.55;100.00;101273.34;5073637;28;20494;-54
2022/09/17 03:16:49;;;;;;;11.30;3.15;;;;;;;11.51;100.00;101281.22;5060179;28;20037;-54
2022/09/17 03:19:17;;;;;;;10.13;3.00;;;;;;;11.48;100.00;101287.19;5063471;28;20102;-54
2022/09/17 03:21:44;;;;;;;12.05;2.80;;;;;;;11.45;100.00;101292.38;5072703;28;20095;-55
2022/09/17 03:24:12;;;;;;;13.75;3.33;;;;;;;11.43;100.00;101279.00;5059071;28;20499;-58
2022/09/17 03:26:40;;;;;;;9.93;2.92;;;;;;;11.43;100.00;101279.00;5072487;28;20052;-58
2022/09/17 03:29:08;;;;;;;11.60;3.10;;;;;;;11.44;100.00;101277.88;5072077;28;20068;-55
2022/09/17 03:31:35;;;;;;;11.25;3.00;;;;;;;11.42;100.00;101293.69;5071997;28;20535;-55
2022/09/17 03:34:03;;;;;;;10.23;2.97;;;;;;;11.43;100.00;101292.63;5066424;28;20049;-56
2022/09/17 03:36:31;;;;;;;9.70;3.15;;;;;;;11.44;100.00;101283.34;5062167;28;20044;-57
2022/09/17 03:38:59;;;;;;;13.73;3.10;;;;;;;11.46;99.93;101277.63;5071639;28;20040;-58
2022/09/17 03:41:27;;;;;;;14.40;3.17;;;;;;;11.47;99.75;101268.34;5073068;28;20398;-56
2022/09/17 03:43:55;;;;;;;15.43;3.13;;;;;;;11.45;99.14;101256.91;5063830;28;20055;-59
2022/09/17 03:46:23;;;;;;;8.30;2.47;;;;;;;11.45;98.54;101265.09;5066777;28;20395;-58
2022/09/17 03:48:50;;;;;;;13.23;3.28;;;;;;;11.45;98.42;101268.63;5066213;28;20048;-54
2022/09/17 03:51:18;;;;;;;9.75;3.00;;;;;;;11.46;98.54;101267.53;5057234;28;20036;-56
2022/09/17 03:53:46;;;;;;;15.40;2.85;;;;;;;11.47;98.64;101263.75;5069303;28;20041;-58
2022/09/17 03:56:14;;;;;;;13.07;2.90;;;;;;;11.49;97.86;101274.38;5071152;28;20490;-57
2022/09/17 03:58:41;;;;;;;10.02;2.85;;;;;;;11.47;96.80;101312.84;5067821;28;20041;-58
2022/09/17 04:01:09;;;;;;;11.73;3.45;;;;;;;11.43;97.07;101321.81;5069503;28;20036;-58
2022/09/17 04:03:37;;;;;;;13.82;3.15;;;;;;;11.40;98.31;101298.63;5072344;28;20041;-55
2022/09/17 04:06:05;;;;;;;13.80;3.20;;;;;;;11.36;98.40;101293.94;5062103;28;20045;-57
2022/09/17 04:08:33;;;;;;;12.45;2.97;;;;;;;11.32;99.08;101282.72;5037920;28;20522;-58
2022/09/17 04:11:00;;;;;;;12.73;3.42;;;;;;;11.30;99.49;101283.00;5070205;28;20060;-53
2022/09/17 04:13:28;;;;;;;11.05;2.60;;;;;;;11.30;98.92;101279.44;5067418;28;20416;-57
2022/09/17 04:15:56;;;;;;;11.40;3.08;;;;;;;11.28;98.50;101281.59;5060466;28;20048;-58
2022/09/17 04:18:24;;;;;;;11.48;2.90;;;;;;;11.24;98.90;101296.84;5071217;28;20036;-56
2022/09/17 04:20:52;;;;;;;11.00;2.92;;;;;;;11.23;99.43;101300.66;5060538;28;20052;-58
2022/09/17 04:23:20;;;;;;;10.70;3.05;;;;;;;11.22;99.53;101304.47;5071324;28;20051;-62
2022/09/17 04:25:48;;;;;;;6.80;2.45;;;;;;;11.20;99.47;101296.53;5052298;28;20552;-55
2022/09/17 04:28:15;;;;;;;12.82;2.65;;;;;;;11.20;100.00;101303.91;5072964;28;20033;-55
2022/09/17 04:30:43;;;;;;;7.00;2.42;;;;;;;11.20;100.00;101309.34;5072024;28;20036;-57
2022/09/17 04:33:11;;;;;;;11.25;2.95;;;;;;;11.19;100.00;101310.44;5072687;28;20041;-59
2022/09/17 04:35:39;;;;;;;10.07;2.97;;;;;;;11.17;100.00;101312.63;5070860;28;20048;-58
2022/09/17 04:38:07;;;;;;;11.27;2.92;;;;;;;11.16;100.00;101303.63;5071016;28;20037;-54
2022/09/17 04:40:35;;;;;;;9.80;2.95;;;;;;;11.19;100.00;101302.28;5069980;28;20048;-54
2022/09/17 04:43:03;;;;;;;12.88;3.03;;;;;;;11.18;100.00;101304.16;5070134;28;22091;-54
2022/09/17 04:45:32;;;;;;;10.82;3.08;;;;;;;11.16;100.00;101309.06;5064118;28;20445;-56
2022/09/17 04:48:00;;;;;;;12.55;2.67;;;;;;;11.14;100.00;101303.06;5068970;28;20048;-58
2022/09/17 04:50:28;;;;;;;9.25;2.90;;;;;;;11.14;100.00;101313.97;5073517;28;20121;-57
2022/09/17 04:52:56;;;;;;;10.55;3.15;;;;;;;11.14;100.00;101303.06;5075487;28;20048;-53
2022/09/17 04:55:24;;;;;;;10.82;2.90;;;;;;;11.14;100.00;101305.78;5074284;28;20138;-55
2022/09/17 04:57:52;;;;;;;8.70;2.90;;;;;;;11.17;100.00;101304.44;5062575;28;20060;-52
2022/09/17 05:00:21;;;;;;;13.88;3.47;;;;;;;11.15;100.00;101303.88;5074985;28;20048;-53
2022/09/17 05:02:51;;;;;;;14.20;3.15;;;;;;;11.14;100.00;101308.50;5072779;28;20045;-56
2022/09/17 05:05:20;;;;;;;10.70;3.00;;;;;;;11.14;100.00;101303.06;5073200;28;20490;-53
2022/09/17 05:07:47;;;;;;;11.70;2.97;;;;;;;11.16;100.00;101292.72;5057457;28;20454;-53
2022/09/17 05:10:18;;;;;;;11.40;3.00;;;;;;;11.15;100.00;101309.31;5068628;28;20094;-53
2022/09/17 05:12:55;;;;;;;15.93;3.60;;;;;;;11.10;100.00;101307.38;5068323;28;20048;-54
2022/09/17 05:15:24;;;;;;;12.10;2.85;;;;;;;11.06;100.00;101312.53;5068868;28;20043;-54
2022/09/17 05:17:52;;;;;;;16.65;3.60;;;;;;;11.04;100.00;101325.59;5074797;28;20045;-53
2022/09/17 05:20:21;;;;;;;11.20;3.35;;;;;;;11.06;100.00;101317.13;5054578;28;20542;-53
2022/09/17 05:22:51;;;;;;;10.48;2.60;;;;;;;11.07;100.00;101319.63;5063018;28;20106;-56
2022/09/17 05:25:23;;;;;;;9.02;2.70;;;;;;;11.05;100.00;101324.50;5074959;28;20114;-53
2022/09/17 05:27:52;;;;;;;10.30;3.10;;;;;;;11.03;100.00;101328.56;5061816;28;20136;-57
2022/09/17 05:30:20;;;;;;;14.40;3.15;;;;;;;11.02;100.00;101332.41;5060791;28;20047;-54
2022/09/17 05:32:48;;;;;;;14.45;3.22;;;;;;;11.04;100.00;101338.38;5071636;28;20376;-55
2022/09/17 05:35:16;;;;;;;13.95;3.33;;;;;;;11.05;100.00;101335.41;5069006;28;20486;-58
2022/09/17 05:37:43;;;;;;;15.43;3.67;;;;;;;11.05;100.00;101327.22;5063311;28;20494;-54
2022/09/17 05:40:11;;;;;;;11.10;2.92;;;;;;;11.08;100.00;101332.16;5066283;28;20049;-54
2022/09/17 05:42:39;;;;;;;10.02;2.90;;;;;;;11.05;100.00;101332.69;5073287;28;20041;-55
2022/09/17 05:45:07;;;;;;;12.45;2.85;;;;;;;11.04;100.00;101336.50;5066820;28;20086;-56
2022/09/17 05:47:35;;;;;;;12.95;3.28;;;;;;;11.04;100.00;101341.97;5058662;28;20029;-54
2022/09/17 05:50:03;;;;;;;13.05;2.90;;;;;;;11.04;100.00;101336.50;5071864;28;20041;-55
2022/09/17 05:52:31;;;;;;;9.63;2.83;;;;;;;11.07;100.00;101335.97;5071972;28;20045;-54
2022/09/17 05:54:59;;;;;;;14.30;3.20;;;;;;;11.07;100.00;101341.44;5072967;28;20083;-58
2022/09/17 05:57:29;;;;;;;11.45;3.05;;;;;;;11.05;100.00;101343.59;5065595;28;20446;-55
2022/09/17 05:59:57;;;;;;;10.43;3.00;;;;;;;11.04;100.00;101347.41;5066801;28;20131;-55
2022/09/17 06:02:24;;;;;;;13.00;2.95;;;;;;;11.05;100.00;101349.03;5056259;28;20048;-57
2022/09/17 06:04:52;;;;;;;12.25;3.15;;;;;;;11.07;100.00;101352.34;5070483;28;20049;-53
2022/09/17 06:07:20;;;;;;;12.70;3.05;;;;;;;11.08;100.00;101359.44;5071453;28;20498;-54
2022/09/17 06:09:48;;;;;;;10.95;3.00;;;;;;;11.08;100.00;101353.97;5073152;28;20411;-57
2022/09/17 06:12:15;;;;;;;10.50;3.30;;;;;;;11.11;100.00;101360.00;5073211;28;20045;-54
2022/09/17 06:14:43;;;;;;;16.23;3.40;;;;;;;11.12;100.00;101361.66;5070588;28;20063;-54
2022/09/17 06:17:11;;;;;;;12.88;3.40;;;;;;;11.14;100.00;101362.22;5069138;28;20048;-54
2022/09/17 06:19:38;;;;;;;12.40;3.83;;;;;;;11.18;100.00;101368.78;5064782;28;20049;-54
2022/09/17 06:22:06;;;;;;;11.77;4.10;;;;;;;11.19;100.00;101371.28;5064403;28;20410;-54
2022/09/17 06:24:34;;;;;;;11.85;2.95;;;;;;;11.17;99.78;101367.97;5066150;28;20411;-54
2022/09/17 06:27:02;;;;;;;10.07;3.40;;;;;;;11.16;99.42;101366.34;5068266;28;20041;-57
2022/09/17 06:29:30;;;;;;;11.98;3.10;;;;;;;11.18;99.83;101366.06;5074409;28;20072;-55
2022/09/17 06:31:58;;;;;;;12.60;3.20;;;;;;;11.20;100.00;101366.63;5074126;28;20394;-54
2022/09/17 06:34:26;;;;;;;18.80;3.42;;;;;;;11.21;99.75;101371.03;5068583;28;20097;-55
2022/09/17 06:36:54;;;;;;;10.70;3.15;;;;;;;11.20;100.00;101364.72;5074069;28;20406;-53
2022/09/17 06:39:23;;;;;;;12.18;3.17;;;;;;;11.23;100.00;101360.66;5074182;28;20409;-55
2022/09/17 06:41:50;;;;;;;10.57;3.30;;;;;;;11.24;99.23;101363.13;5074025;28;20044;-57
2022/09/17 06:44:18;;;;;;;12.35;2.88;;;;;;;11.23;99.19;101357.94;5069048;28;20434;-54
2022/09/17 06:46:49;;;;;;;10.77;2.50;;;;;;;11.24;99.24;101367.78;5054147;28;20522;-54
2022/09/17 06:49:18;;;;;;;11.20;3.58;;;;;;;11.27;99.61;101367.25;5073835;28;20044;-53
2022/09/17 06:51:45;;;;;;;10.30;3.33;;;;;;;11.28;99.10;101366.16;5072732;28;20453;-54
2022/09/17 06:54:13;;;;;;;11.52;3.05;;;;;;;11.28;98.52;101371.59;5073371;28;20103;-58
2022/09/17 06:56:41;;;;;;;13.00;3.88;;;;;;;11.29;97.94;101368.63;5066669;28;20044;-54
2022/09/17 06:59:09;;;;;;;8.93;3.17;;;;;;;11.32;97.99;101363.75;5070324;28;20052;-55
2022/09/17 07:01:37;;;;;;;12.23;3.28;;;;;;;11.28;97.47;101372.47;5073768;28;20491;-54
2022/09/17 07:04:04;;;;;;;8.68;2.50;;;;;;;11.27;97.17;101372.69;5073786;28;20041;-55
2022/09/17 07:06:32;;;;;;;7.93;2.42;;;;;;;11.28;97.20;101368.88;5058564;28;20041;-57
2022/09/17 07:09:00;;;;;;;11.38;2.70;;;;;;;11.29;97.41;101367.81;5055979;28;20051;-54
2022/09/17 07:11:30;;;;;;;10.90;2.55;;;;;;;11.30;96.93;101366.72;5069685;28;20076;-54
2022/09/17 07:13:58;;;;;;;11.00;2.72;;;;;;;11.34;96.81;101375.22;5070926;28;20037;-54
2022/09/17 07:16:26;;;;;;;9.68;2.65;;;;;;;11.34;95.61;101376.03;5056017;28;20033;-54
2022/09/17 07:18:54;;;;;;;7.82;2.20;;;;;;;11.36;96.06;101382.06;5073426;28;20524;-55
2022/09/17 07:21:22;;;;;;;12.15;2.72;;;;;;;11.36;94.61;101367.59;5067179;28;20047;-55
2022/09/17 07:23:50;;;;;;;7.63;2.45;;;;;;;11.40;94.92;101376.91;5059517;28;20048;-58
2022/09/17 07:26:18;;;;;;;7.88;2.25;;;;;;;11.42;94.46;101370.09;5064707;28;20044;-56
2022/09/17 07:28:46;;;;;;;6.47;2.33;;;;;;;11.47;93.98;101377.50;5060803;28;20040;-57
2022/09/17 07:31:14;;;;;;;8.23;2.15;;;;;;;11.49;93.48;101381.63;5072443;28;20052;-55
2022/09/17 07:33:44;;;;;;;8.00;2.20;;;;;;;11.49;92.10;101378.88;5070029;28;20044;-58
2022/09/17 07:36:13;;;;;;;8.98;2.67;;;;;;;11.52;92.54;101381.13;5072092;28;20056;-53
2022/09/17 07:38:41;;;;;;;6.30;2.05;;;;;;;11.52;91.29;101378.38;5072106;28;20495;-55
2022/09/17 07:41:12;;;;;;;8.35;2.20;;;;;;;11.55;91.44;101379.78;5073106;28;20036;-53
2022/09/17 07:43:40;;;;;;;7.30;2.22;;;;;;;11.58;91.40;101375.69;5071391;28;20040;-55
2022/09/17 07:46:14;;;;;;;6.50;2.00;;;;;;;11.58;90.36;101376.50;5058195;28;20055;-55
2022/09/17 07:48:41;;;;;;;5.22;1.88;;;;;;;11.62;89.68;101385.03;5085904;28;20450;-56
2022/09/17 07:51:18;;;;;;;8.95;2.60;;;;;;;11.67;91.10;101377.69;5072334;28;20044;-58
2022/09/17 07:53:46;;;;;;;8.98;2.53;;;;;;;11.71;91.40;101377.97;5071177;28;20052;-59
2022/09/17 07:56:15;;;;;;;8.45;2.58;;;;;;;11.77;92.22;101368.75;5071959;28;20496;-55
2022/09/17 07:58:42;;;;;;;7.03;2.25;;;;;;;11.82;92.87;101379.69;5067006;28;20036;-55
2022/09/17 08:01:12;;;;;;;7.90;2.30;;;;;;;11.87;93.08;101377.03;5071578;28;20037;-55
2022/09/17 08:03:39;;;;;;;9.15;2.30;;;;;;;11.88;92.95;101384.16;5070824;28;20049;-57
2022/09/17 08:06:13;;;;;;;12.07;2.40;;;;;;;11.91;93.54;101383.63;5058099;28;20040;-57
2022/09/17 08:08:41;;;;;;;9.35;2.30;;;;;;;11.92;93.49;101393.44;5064555;28;20040;-56
2022/09/17 08:11:17;;;;;;;7.00;2.30;;;;;;;11.91;93.67;101391.81;5072707;28;20065;-54
2022/09/17 08:14:06;;;;;;;9.57;2.25;;;;;;;11.81;94.63;101397.16;5072029;28;20044;-57
2022/09/17 08:16:33;;;;;;;9.73;2.63;;;;;;;11.73;94.84;101389.44;5067788;28;20086;-54
2022/09/17 08:19:02;;;;;;;10.05;2.70;;;;;;;11.70;96.79;101393.53;5072822;28;20043;-57
2022/09/17 08:21:29;;;;;;;7.82;2.08;;;;;;;11.70;96.02;101390.78;5072908;28;20036;-56
2022/09/17 08:23:58;;;;;;;7.90;2.38;;;;;;;11.71;97.22;101395.19;5067822;28;20097;-54
2022/09/17 08:26:26;;;;;;;8.65;2.25;;;;;;;11.74;98.03;101399.31;5057897;28;20048;-54
2022/09/17 08:28:55;;;;;;;6.20;2.25;;;;;;;11.74;98.59;101393.84;5068383;28;20045;-58
2022/09/17 08:31:25;;;;;;;7.88;2.20;;;;;;;11.76;99.28;101394.41;5076630;28;20082;-54
2022/09/17 08:33:53;;;;;;;6.30;2.03;;;;;;;11.79;99.22;101396.59;5071542;28;20041;-56
2022/09/17 08:36:23;;;;;;;11.10;2.30;;;;;;;11.81;99.44;101399.91;5075500;28;20052;-58
2022/09/17 08:38:54;;;;;;;9.93;2.50;;;;;;;11.84;99.33;101402.09;5076537;28;20052;-55
2022/09/17 08:41:39;;;;;;;10.13;2.42;;;;;;;11.90;99.24;101394.78;5065872;28;20049;-55
2022/09/17 08:44:27;;;;;;;11.02;2.38;;;;;;;11.97;98.46;101391.84;5066243;28;20075;-55
2022/09/17 08:47:04;;;;;;;9.13;2.67;;;;;;;12.00;96.81;101394.03;5076465;28;20035;-53
2022/09/17 08:49:39;;;;;;;9.32;2.38;;;;;;;12.03;97.17;101396.25;5059536;28;20048;-57
2022/09/17 08:52:33;;;;;;;12.23;2.45;;;;;;;12.07;96.80;101392.69;5076516;28;20037;-58
2022/09/17 08:55:25;;;;;;;12.70;2.60;;;;;;;12.14;96.30;101381.56;5070170;28;20507;-54
2022/09/17 08:58:07;;;;;;;11.15;2.83;;;;;;;12.20;95.67;101372.31;5074987;28;20075;-56
2022/09/17 09:00:49;;;;;;;12.18;2.60;;;;;;;12.22;95.11;101381.06;5076419;28;20475;-55
2022/09/17 09:03:29;;;;;;;9.98;2.58;;;;;;;12.27;94.21;101388.47;5073346;28;20041;-58
2022/09/17 09:05:58;;;;;;;11.88;2.65;;;;;;;12.32;93.70;101405.72;5075948;28;20049;-55
2022/09/17 09:08:34;;;;;;;8.80;2.47;;;;;;;12.38;94.28;101387.41;5060627;28;20056;-55
2022/09/17 09:11:04;;;;;;;6.97;2.70;;;;;;;12.45;91.09;101392.66;5074685;28;20127;-55
2022/09/17 09:13:42;;;;;;;11.32;2.33;;;;;;;12.50;87.26;101403.59;5074593;28;20037;-56
2022/09/17 09:16:25;;;;;;;12.63;2.72;;;;;;;12.53;84.71;101394.84;5069835;28;20048;-54
2022/09/17 09:19:20;;;;;;;12.25;2.90;;;;;;;12.60;86.04;101395.44;5074571;28;20044;-57
2022/09/17 09:22:03;;;;;;;10.10;2.63;;;;;;;12.66;85.07;101385.34;5075543;28;20486;-55
2022/09/17 09:24:45;;;;;;;8.25;2.58;;;;;;;12.69;83.14;101388.34;5072222;28;20565;-58
2022/09/17 09:27:19;;;;;;;8.20;2.55;;;;;;;12.70;83.32;101395.50;5061608;28;20102;-56
2022/09/17 09:30:06;;;;;;;10.80;2.50;;;;;;;12.70;85.64;101384.56;5075465;28;20512;-56
2022/09/17 09:32:57;;;;;;;9.13;2.58;;;;;;;12.68;86.94;101400.41;5057578;28;20503;-55
2022/09/17 09:35:35;;;;;;;15.43;4.72;;;;;;;12.65;88.36;101397.34;5074967;28;20052;-56
2022/09/17 09:38:23;;;;;;;7.63;2.35;;;;;;;12.59;90.70;101410.19;5071483;28;20051;-53
2022/09/17 09:41:16;;;;;;;10.00;3.22;;;;;;;12.55;91.97;101414.53;5060532;28;20052;-56
2022/09/17 09:43:52;;;;;;;9.15;2.53;;;;;;;12.46;89.60;101419.72;5062624;28;20044;-57
2022/09/17 09:46:44;;;;;;;5.20;1.75;;;;;;;12.41;89.63;101421.59;5058078;28;20059;-55
2022/09/17 09:49:30;;;;;;;7.72;2.38;;;;;;;12.30;91.29;101427.00;5085335;28;20098;-58
2022/09/17 09:52:08;;;;;;;8.90;2.30;;;;;;;12.25;92.29;101424.25;5068571;28;20550;-58
2022/09/17 09:55:06;;;;;;;8.75;2.13;;;;;;;12.22;93.55;101422.06;5074098;28;20037;-55
2022/09/17 09:57:48;;;;;;;8.18;2.10;;;;;;;12.21;93.69;101420.38;5062506;28;20062;-55
2022/09/17 10:00:37;;;;;;;9.05;2.00;;;;;;;12.26;94.73;101420.41;5067198;28;20053;-53
2022/09/17 10:03:21;;;;;;;6.97;2.25;;;;;;;12.29;94.83;101417.16;5072179;28;20471;-56
2022/09/17 10:05:58;;;;;;;9.13;2.00;;;;;;;12.39;95.07;101410.94;5075231;28;20044;-56
2022/09/17 10:08:28;;;;;;;10.35;2.90;;;;;;;12.44;95.80;101418.34;5058522;28;20040;-55
2022/09/17 10:11:03;;;;;;;8.77;2.20;;;;;;;12.49;96.31;101415.63;5067109;28;20060;-57
2022/09/17 10:13:36;;;;;;;8.55;2.35;;;;;;;12.54;95.42;101408.25;5074599;28;20111;-56
2022/09/17 10:16:23;;;;;;;11.30;2.70;;;;;;;12.63;96.54;101405.00;5057759;28;20041;-59
2022/09/17 10:19:19;;;;;;;8.07;2.42;;;;;;;12.64;89.01;101409.41;5073996;28;20033;-56
2022/09/17 10:21:46;;;;;;;7.70;2.55;;;;;;;12.68;90.79;101403.13;5070296;28;20048;-60
2022/09/17 10:24:28;;;;;;;5.68;2.25;;;;;;;12.71;85.18;101402.59;5064457;28;20043;-58
2022/09/17 10:27:16;;;;;;;9.07;1.92;;;;;;;12.80;84.05;101411.09;5073312;28;20068;-55
2022/09/17 10:29:46;;;;;;;7.32;2.13;;;;;;;12.85;84.58;101396.63;5072896;28;20048;-54
2022/09/17 10:32:21;;;;;;;7.18;2.10;;;;;;;12.90;80.47;101402.09;5073476;28;20040;-59
2022/09/17 10:35:03;;;;;;;8.25;2.50;;;;;;;12.98;82.62;101391.44;5065165;28;20406;-57
2022/09/17 10:37:48;;;;;;;7.47;1.98;;;;;;;13.08;83.95;101398.03;5064909;28;20490;-57
2022/09/17 10:40:19;;;;;;;7.75;2.05;;;;;;;13.12;83.15;101397.22;5074294;28;20036;-54
2022/09/17 10:42:49;;;;;;;6.35;1.80;;;;;;;13.14;80.24;101395.03;5074561;28;20124;-57
2022/09/17 10:45:30;;;;;;;4.93;1.80;;;;;;;13.16;80.83;101400.25;5074065;28;20044;-58
2022/09/17 10:47:59;;;;;;;6.15;2.38;;;;;;;13.18;79.67;101412.56;5066201;28;20048;-55
2022/09/17 10:50:32;;;;;;;7.05;2.20;;;;;;;13.16;80.46;101398.34;5073938;28;20506;-57
2022/09/17 10:53:03;;;;;;;5.70;1.88;;;;;;;13.19;81.58;101395.06;5067937;28;20048;-56
2022/09/17 10:56:12;;;;;;;7.55;2.80;;;;;;;13.21;79.98;101395.59;5073020;28;20051;-56
2022/09/17 10:58:49;;;;;;;8.27;2.00;;;;;;;13.25;80.46;101400.53;5043534;28;20068;-57
2022/09/17 11:01:56;;;;;;;6.35;2.13;;;;;;;13.22;78.91;101402.72;5066707;28;20050;-57
2022/09/17 11:04:41;;;;;;;8.77;1.85;;;;;;;13.22;79.03;101382.75;5037510;28;20049;-55
2022/09/17 11:07:19;;;;;;;5.70;1.98;;;;;;;13.25;76.80;101393.13;5072591;28;20044;-59
2022/09/17 11:10:21;;;;;;;8.13;2.50;;;;;;;13.29;76.22;101388.78;5072753;28;20050;-55
2022/09/17 11:13:27;;;;;;;5.80;2.00;;;;;;;13.35;77.19;101389.66;5056460;28;20408;-58
2022/09/17 11:16:23;;;;;;;8.25;1.98;;;;;;;13.32;77.44;101374.56;5064821;28;20375;-54
2022/09/17 11:19:02;;;;;;;9.20;2.50;;;;;;;13.31;77.77;101372.94;5073552;28;20396;-56
2022/09/17 11:21:41;;;;;;;5.68;2.25;;;;;;;13.33;77.93;101376.22;5060719;28;20110;-54
2022/09/17 11:24:36;;;;;;;8.90;1.90;;;;;;;13.30;80.70;101378.66;5068640;28;20395;-58
2022/09/17 11:27:17;;;;;;;6.50;1.98;;;;;;;13.25;84.68;101373.97;5035867;28;20110;-58
2022/09/17 11:29:48;;;;;;;5.40;1.88;;;;;;;13.28;87.47;101372.66;5064980;28;20575;-57
2022/09/17 11:32:53;;;;;;;7.57;2.05;;;;;;;13.33;88.12;101376.22;5063480;28;20040;-59
2022/09/17 11:35:27;;;;;;;8.85;2.20;;;;;;;13.37;87.01;101376.47;5069628;28;20052;-55
2022/09/17 11:38:00;;;;;;;5.18;1.98;;;;;;;13.41;85.23;101388.53;5072165;28;20506;-56
2022/09/17 11:40:54;;;;;;;5.68;2.15;;;;;;;13.42;82.91;101368.25;5073039;28;20041;-58
2022/09/17 11:43:34;;;;;;;6.72;1.88;;;;;;;13.50;81.83;101365.00;5071163;28;20040;-59
2022/09/17 11:46:16;;;;;;;5.97;1.83;;;;;;;13.52;80.56;101362.00;5066427;28;20049;-56
2022/09/17 11:49:04;;;;;;;11.05;3.08;;;;;;;13.53;80.71;101372.66;5068772;28;20041;-57